Terminal Aerodrome Forecast
Issued by NWS

Home | Current Version | Previous Version | Text Only | Print | Product List | Glossary On
Versions: 1 2 3 4 5 6 7 8 9 10 11 12 13
000
FTUS45 KTFX 011100
TAFHVR
TAF
KHVR 011139Z 0112/0212 27009KT P6SM SCT030 BKN080
     FM011600 30011KT P6SM SCT050 BKN120
     FM020200 24009KT P6SM SCT150
     FM020900 28010KT P6SM SCT040 BKN070=

USA.gov is the U.S. government's official web portal to all federal, state and local government web resources and services.